createdAt,value
2022-10-14T00:00:38.870Z,12.6
2022-10-14T00:01:41.967Z,12.6
2022-10-14T00:02:44.034Z,12.6
2022-10-14T00:03:46.926Z,12.6
2022-10-14T00:04:50.261Z,12.6
2022-10-14T00:05:53.039Z,12.6
2022-10-14T00:06:55.755Z,12.6
2022-10-14T00:07:59.194Z,12.6
2022-10-14T00:09:02.962Z,12.6
2022-10-14T00:10:06.169Z,12.6
2022-10-14T00:11:09.900Z,12.6
2022-10-14T00:12:12.882Z,12.6
2022-10-14T00:13:15.750Z,12.6
2022-10-14T00:14:18.914Z,12.6
2022-10-14T00:15:22.320Z,12.6
2022-10-14T00:16:25.395Z,12.6
2022-10-14T00:17:28.181Z,12.6
2022-10-14T00:18:31.661Z,12.6
2022-10-14T00:19:34.823Z,12.6
2022-10-14T00:20:38.273Z,12.6
2022-10-14T00:21:41.260Z,12.5
2022-10-14T00:22:44.158Z,12.5
2022-10-14T00:23:47.336Z,12.5
2022-10-14T00:24:51.369Z,12.5
2022-10-14T00:25:54.235Z,12.5
2022-10-14T00:26:57.587Z,12.5
2022-10-14T00:28:00.582Z,12.5
2022-10-14T00:29:03.657Z,12.5
2022-10-14T00:30:06.170Z,12.5
2022-10-14T00:31:09.236Z,12.5
2022-10-14T00:32:12.387Z,12.5
2022-10-14T00:33:15.251Z,12.5
2022-10-14T00:34:18.239Z,12.5
2022-10-14T00:35:20.827Z,12.6
2022-10-14T00:36:24.533Z,12.6
2022-10-14T00:37:27.325Z,12.6
2022-10-14T00:38:29.865Z,12.6
2022-10-14T00:39:32.948Z,12.6
2022-10-14T00:40:36.761Z,12.6
2022-10-14T00:41:40.412Z,12.6
2022-10-14T00:42:44.209Z,12.6
2022-10-14T00:43:47.640Z,12.6
2022-10-14T00:44:50.353Z,12.6
2022-10-14T00:45:53.054Z,12.6
2022-10-14T00:46:55.849Z,12.6
2022-10-14T00:47:58.519Z,12.5
2022-10-14T00:49:00.762Z,12.5
2022-10-14T00:50:03.906Z,12.5
2022-10-14T00:51:07.148Z,12.5
2022-10-14T00:52:11.155Z,12.5
2022-10-14T00:53:14.298Z,12.5
2022-10-14T00:54:16.740Z,12.5
2022-10-14T00:55:20.308Z,12.6
2022-10-14T00:56:23.784Z,12.5
2022-10-14T00:57:26.500Z,12.5
2022-10-14T00:58:29.097Z,12.5
2022-10-14T00:59:31.375Z,12.5
2022-10-14T01:00:34.789Z,12.5
2022-10-14T01:01:37.844Z,12.5
2022-10-14T01:02:40.740Z,12.5
2022-10-14T01:03:43.736Z,12.5
2022-10-14T01:04:46.286Z,12.5
2022-10-14T01:05:48.521Z,12.5
2022-10-14T01:06:51.330Z,12.5
2022-10-14T01:07:54.753Z,12.5
2022-10-14T01:08:57.823Z,12.5
2022-10-14T01:10:01.095Z,12.5
2022-10-14T01:11:04.645Z,12.5
2022-10-14T01:12:38.552Z,12.5
2022-10-14T01:13:41.915Z,12.5
2022-10-14T01:14:44.980Z,12.6
2022-10-14T01:15:47.501Z,12.6
2022-10-14T01:16:50.087Z,12.6
2022-10-14T01:17:53.828Z,12.6
2022-10-14T01:18:56.999Z,12.6
2022-10-14T01:20:00.350Z,12.6
2022-10-14T01:21:03.420Z,12.6
2022-10-14T01:22:06.565Z,12.6
2022-10-14T01:23:10.572Z,12.6
2022-10-14T01:24:13.465Z,12.6
2022-10-14T01:25:16.894Z,12.5
2022-10-14T01:26:20.470Z,12.6
2022-10-14T01:27:24.268Z,12.6
2022-10-14T01:28:27.352Z,12.6
2022-10-14T01:29:30.494Z,12.6
2022-10-14T01:30:33.635Z,12.6
2022-10-14T01:31:36.393Z,12.6
2022-10-14T01:32:39.670Z,12.6
2022-10-14T01:33:41.996Z,12.6
2022-10-14T01:34:44.504Z,12.5
2022-10-14T01:35:48.039Z,12.6
2022-10-14T01:36:51.383Z,12.5
2022-10-14T01:37:54.823Z,12.5
2022-10-14T01:38:57.735Z,12.5
2022-10-14T01:40:00.625Z,12.6
2022-10-14T01:41:04.360Z,12.5
2022-10-14T01:42:08.468Z,12.6
2022-10-14T01:43:12.214Z,12.6
2022-10-14T01:44:15.468Z,12.6
2022-10-14T01:45:18.881Z,12.6
2022-10-14T01:46:22.026Z,12.6
2022-10-14T01:47:25.454Z,12.6
2022-10-14T01:48:28.654Z,12.6
2022-10-14T01:49:31.726Z,12.6
2022-10-14T01:50:35.442Z,12.6
2022-10-14T01:51:38.990Z,12.6
2022-10-14T01:52:40.857Z,12.5
2022-10-14T01:53:43.800Z,12.5
2022-10-14T01:54:46.663Z,12.5
2022-10-14T01:55:49.378Z,12.5
2022-10-14T01:56:52.642Z,12.5
2022-10-14T01:57:56.097Z,12.6
2022-10-14T01:59:00.127Z,12.6
2022-10-14T02:00:02.985Z,12.6
2022-10-14T02:01:05.780Z,12.6
2022-10-14T02:02:08.890Z,12.6
2022-10-14T02:03:12.361Z,12.6
2022-10-14T02:04:15.578Z,12.6
2022-10-14T02:05:18.296Z,12.6
2022-10-14T02:06:21.285Z,12.6
2022-10-14T02:07:24.091Z,12.6
2022-10-14T02:08:27.743Z,12.6
2022-10-14T02:09:30.843Z,12.6
2022-10-14T02:10:33.945Z,12.6
2022-10-14T02:11:36.827Z,12.5
2022-10-14T02:12:39.832Z,12.5
2022-10-14T02:13:43.007Z,12.5
2022-10-14T02:14:46.766Z,12.5
2022-10-14T02:15:49.653Z,12.5
2022-10-14T02:16:52.798Z,12.5
2022-10-14T02:17:56.150Z,12.5
2022-10-14T02:18:59.246Z,12.5
2022-10-14T02:20:02.570Z,12.5
2022-10-14T02:21:05.995Z,12.5
2022-10-14T02:22:09.152Z,12.5
2022-10-14T02:23:12.506Z,12.5
2022-10-14T02:24:15.579Z,12.5
2022-10-14T02:25:18.760Z,12.6
2022-10-14T02:26:22.210Z,12.5
2022-10-14T02:27:25.279Z,12.5
2022-10-14T02:28:28.426Z,12.5
2022-10-14T02:29:32.028Z,12.5
2022-10-14T02:30:36.023Z,12.5
2022-10-14T02:31:38.421Z,12.5
2022-10-14T02:32:40.656Z,12.5
2022-10-14T02:33:42.930Z,12.5
2022-10-14T02:34:45.445Z,12.5
2022-10-14T02:35:48.601Z,12.5
2022-10-14T02:36:51.773Z,12.5
2022-10-14T02:37:54.367Z,12.5
2022-10-14T02:38:57.185Z,12.5
2022-10-14T02:39:59.896Z,12.5
2022-10-14T02:41:03.057Z,12.5
2022-10-14T02:42:06.205Z,12.5
2022-10-14T02:43:09.662Z,12.5
2022-10-14T02:44:11.960Z,12.5
2022-10-14T02:45:15.795Z,12.5
2022-10-14T02:46:19.293Z,12.5
2022-10-14T02:47:22.548Z,12.5
2022-10-14T02:48:25.976Z,12.5
2022-10-14T02:49:29.121Z,12.5
2022-10-14T02:50:32.222Z,12.5
2022-10-14T02:51:35.353Z,12.5
2022-10-14T02:52:38.883Z,12.5
2022-10-14T02:53:41.684Z,12.5
2022-10-14T02:54:45.055Z,12.5
2022-10-14T02:55:48.492Z,12.5
2022-10-14T02:56:51.217Z,12.5
2022-10-14T02:57:54.442Z,12.5
2022-10-14T02:58:58.058Z,12.5
2022-10-14T03:00:01.518Z,12.4
2022-10-14T03:01:05.231Z,12.4
2022-10-14T03:02:09.447Z,12.4
2022-10-14T03:03:12.543Z,12.4
2022-10-14T03:04:15.530Z,12.4
2022-10-14T03:05:18.132Z,12.4
2022-10-14T03:06:20.843Z,12.4
2022-10-14T03:07:23.932Z,12.4
2022-10-14T03:08:26.371Z,12.4
2022-10-14T03:09:30.020Z,12.4
2022-10-14T03:10:33.088Z,12.4
2022-10-14T03:11:35.807Z,12.4
2022-10-14T03:12:38.323Z,12.4
2022-10-14T03:13:41.796Z,12.4
2022-10-14T03:14:44.393Z,12.4
2022-10-14T03:15:47.564Z,12.4
2022-10-14T03:16:51.108Z,12.4
2022-10-14T03:17:54.651Z,12.4
2022-10-14T03:18:57.174Z,12.4
2022-10-14T03:20:00.422Z,12.4
2022-10-14T03:21:03.893Z,12.3
2022-10-14T03:22:06.764Z,12.3
2022-10-14T03:23:09.833Z,12.4
2022-10-14T03:24:12.629Z,12.3
2022-10-14T03:25:15.063Z,12.3
2022-10-14T03:26:17.943Z,12.4
2022-10-14T03:27:20.457Z,12.4
2022-10-14T03:28:23.640Z,12.4
2022-10-14T03:29:27.402Z,12.4
2022-10-14T03:30:30.494Z,12.4
2022-10-14T03:31:33.284Z,12.4
2022-10-14T03:32:36.761Z,12.4
2022-10-14T03:33:40.530Z,12.3
2022-10-14T03:34:43.988Z,12.3
2022-10-14T03:35:46.431Z,12.3
2022-10-14T03:36:49.576Z,12.3
2022-10-14T03:37:52.904Z,12.3
2022-10-14T03:38:56.247Z,12.3
2022-10-14T03:39:59.025Z,12.3
2022-10-14T03:41:01.883Z,12.4
2022-10-14T03:42:05.032Z,12.3
2022-10-14T03:43:08.483Z,12.3
2022-10-14T03:44:11.715Z,12.3
2022-10-14T03:45:14.617Z,12.3
2022-10-14T03:46:17.056Z,12.3
2022-10-14T03:47:20.841Z,12.3
2022-10-14T03:48:24.304Z,12.3
2022-10-14T03:49:28.104Z,12.3
2022-10-14T03:50:30.882Z,12.3
2022-10-14T03:51:33.769Z,12.3
2022-10-14T03:52:36.858Z,12.3
2022-10-14T03:53:39.931Z,12.3
2022-10-14T03:54:43.172Z,12.4
2022-10-14T03:55:46.334Z,12.4
2022-10-14T03:56:49.232Z,12.4
2022-10-14T03:57:52.027Z,12.4
2022-10-14T03:58:54.810Z,12.4
2022-10-14T03:59:57.390Z,12.4
2022-10-14T04:01:00.260Z,12.4
2022-10-14T04:02:02.989Z,12.4
2022-10-14T04:03:05.875Z,12.4
2022-10-14T04:04:09.040Z,12.4
2022-10-14T04:05:12.871Z,12.4
2022-10-14T04:06:15.304Z,12.4
2022-10-14T04:07:18.677Z,12.4
2022-10-14T04:08:21.945Z,12.4
2022-10-14T04:09:25.098Z,12.4
2022-10-14T04:10:28.172Z,12.4
2022-10-14T04:11:31.680Z,12.4
2022-10-14T04:12:34.856Z,12.4
2022-10-14T04:13:37.575Z,12.4
2022-10-14T04:14:40.469Z,12.4
2022-10-14T04:15:43.749Z,12.3
2022-10-14T04:16:51.719Z,12.3
2022-10-14T04:17:54.334Z,12.3
2022-10-14T04:18:57.136Z,12.3
2022-10-14T04:20:00.956Z,12.3
2022-10-14T04:21:04.777Z,12.3
2022-10-14T04:22:07.661Z,12.3
2022-10-14T04:23:10.467Z,12.3
2022-10-14T04:24:13.607Z,12.3
2022-10-14T04:25:16.682Z,12.3
2022-10-14T04:26:19.757Z,12.3
2022-10-14T04:27:22.832Z,12.3
2022-10-14T04:28:25.710Z,12.3
2022-10-14T04:29:29.217Z,12.3
2022-10-14T04:30:32.641Z,12.3
2022-10-14T04:31:35.360Z,12.3
2022-10-14T04:32:38.431Z,12.2
2022-10-14T04:33:40.673Z,12.2
2022-10-14T04:34:43.271Z,12.2
2022-10-14T04:35:47.141Z,12.3
2022-10-14T04:36:50.630Z,12.3
2022-10-14T04:37:54.005Z,12.3
2022-10-14T04:38:56.873Z,12.2
2022-10-14T04:40:00.216Z,12.2
2022-10-14T04:41:03.013Z,12.2
2022-10-14T04:42:05.526Z,12.2
2022-10-14T04:43:08.406Z,12.2
2022-10-14T04:44:11.763Z,12.2
2022-10-14T04:45:14.758Z,12.3
2022-10-14T04:46:18.203Z,12.3
2022-10-14T04:47:21.303Z,12.3
2022-10-14T04:48:25.081Z,12.3
2022-10-14T04:49:28.440Z,12.3
2022-10-14T04:50:31.304Z,12.3
2022-10-14T04:51:35.023Z,12.3
2022-10-14T04:52:38.786Z,12.3
2022-10-14T04:53:41.570Z,12.3
2022-10-14T04:54:45.007Z,12.3
2022-10-14T04:55:48.429Z,12.3
2022-10-14T04:56:51.614Z,12.3
2022-10-14T04:57:54.513Z,12.3
2022-10-14T04:58:57.524Z,12.3
2022-10-14T05:00:00.708Z,12.3
2022-10-14T05:01:03.779Z,12.3
2022-10-14T05:02:07.229Z,12.3
2022-10-14T05:03:10.404Z,12.3
2022-10-14T05:04:13.756Z,12.3
2022-10-14T05:05:16.916Z,12.3
2022-10-14T05:06:19.981Z,12.3
2022-10-14T05:07:23.526Z,12.3
2022-10-14T05:08:27.387Z,12.3
2022-10-14T05:09:30.548Z,12.3
2022-10-14T05:10:34.058Z,12.3
2022-10-14T05:11:37.332Z,12.3
2022-10-14T05:12:40.130Z,12.3
2022-10-14T05:13:42.520Z,12.3
2022-10-14T05:14:45.981Z,12.3
2022-10-14T05:15:49.127Z,12.3
2022-10-14T05:16:52.550Z,12.3
2022-10-14T05:17:56.056Z,12.3
2022-10-14T05:18:59.786Z,12.3
2022-10-14T05:20:02.040Z,12.3
2022-10-14T05:21:05.197Z,12.3
2022-10-14T05:22:08.008Z,12.3
2022-10-14T05:23:11.915Z,12.3
2022-10-14T05:24:15.659Z,12.3
2022-10-14T05:25:18.810Z,12.3
2022-10-14T05:26:21.927Z,12.3
2022-10-14T05:27:25.629Z,12.3
2022-10-14T05:28:29.136Z,12.3
2022-10-14T05:29:32.886Z,12.3
2022-10-14T05:30:36.378Z,12.4
2022-10-14T05:31:39.254Z,12.3
2022-10-14T05:32:42.417Z,12.3
2022-10-14T05:33:45.021Z,12.3
2022-10-14T05:34:48.025Z,12.3
2022-10-14T05:36:05.997Z,12.4
2022-10-14T05:37:09.644Z,12.4
2022-10-14T05:38:12.158Z,12.4
2022-10-14T05:39:16.015Z,12.4
2022-10-14T05:40:19.841Z,12.4
2022-10-14T05:41:23.303Z,12.4
2022-10-14T05:42:27.051Z,12.4
2022-10-14T05:43:34.355Z,12.4
2022-10-14T05:44:37.595Z,12.4
2022-10-14T05:45:41.216Z,12.4
2022-10-14T05:46:44.954Z,12.4
2022-10-14T05:47:47.939Z,12.4
2022-10-14T05:48:50.760Z,12.4
2022-10-14T05:49:53.348Z,12.4
2022-10-14T05:50:56.531Z,12.4
2022-10-14T05:51:59.667Z,12.4
2022-10-14T05:53:02.910Z,12.4
2022-10-14T05:54:06.919Z,12.4
2022-10-14T05:55:10.187Z,12.4
2022-10-14T05:56:13.644Z,12.4
2022-10-14T05:57:16.514Z,12.4
2022-10-14T05:58:20.526Z,12.4
2022-10-14T05:59:23.373Z,12.4
2022-10-14T06:00:27.351Z,12.4
2022-10-14T06:01:30.952Z,12.4
2022-10-14T06:02:33.627Z,12.4
2022-10-14T06:03:37.052Z,12.5
2022-10-14T06:04:39.285Z,12.4
2022-10-14T06:05:42.637Z,12.5
2022-10-14T06:06:46.286Z,12.5
2022-10-14T06:07:49.808Z,12.4
2022-10-14T06:08:52.673Z,12.5
2022-10-14T06:09:55.740Z,12.5
2022-10-14T06:10:59.208Z,12.5
2022-10-14T06:12:02.796Z,12.5
2022-10-14T06:13:05.540Z,12.5
2022-10-14T06:14:08.286Z,12.5
2022-10-14T06:15:11.156Z,12.5
2022-10-14T06:16:14.227Z,12.5
2022-10-14T06:17:19.486Z,12.5
2022-10-14T06:18:21.954Z,12.5
2022-10-14T06:19:25.370Z,12.5
2022-10-14T06:20:28.920Z,12.5
2022-10-14T06:21:31.640Z,12.5
2022-10-14T06:22:35.073Z,12.5
2022-10-14T06:23:38.079Z,12.5
2022-10-14T06:24:41.510Z,12.5
2022-10-14T06:25:44.889Z,12.5
2022-10-14T06:26:48.488Z,12.5
2022-10-14T06:27:52.604Z,12.5
2022-10-14T06:28:56.413Z,12.5
2022-10-14T06:29:59.552Z,12.5
2022-10-14T06:31:02.427Z,12.5
2022-10-14T06:32:05.585Z,12.5
2022-10-14T06:33:08.938Z,12.4
2022-10-14T06:34:12.002Z,12.4
2022-10-14T06:35:15.093Z,12.4
2022-10-14T06:36:18.005Z,12.4
2022-10-14T06:37:20.600Z,12.4
2022-10-14T06:38:24.334Z,12.4
2022-10-14T06:39:27.863Z,12.3
2022-10-14T06:40:30.974Z,12.3
2022-10-14T06:41:34.231Z,12.3
2022-10-14T06:42:38.033Z,12.3
2022-10-14T06:43:41.787Z,12.3
2022-10-14T06:44:44.634Z,12.3
2022-10-14T06:45:47.900Z,12.3
2022-10-14T06:46:50.807Z,12.3
2022-10-14T06:47:53.674Z,12.3
2022-10-14T06:48:56.647Z,12.3
2022-10-14T06:49:59.826Z,12.3
2022-10-14T06:51:02.998Z,12.3
2022-10-14T06:52:06.436Z,12.3
2022-10-14T06:53:09.805Z,12.3
2022-10-14T06:54:12.958Z,12.3
2022-10-14T06:55:16.304Z,12.3
2022-10-14T06:56:19.109Z,12.4
2022-10-14T06:57:22.527Z,12.3
2022-10-14T06:58:25.996Z,12.3
2022-10-14T06:59:30.099Z,12.3
2022-10-14T07:00:32.342Z,12.3
2022-10-14T07:01:36.404Z,12.3
2022-10-14T07:02:39.402Z,12.3
2022-10-14T07:03:42.796Z,12.2
2022-10-14T07:04:45.777Z,12.2
2022-10-14T07:05:49.039Z,12.2
2022-10-14T07:06:52.108Z,12.2
2022-10-14T07:07:55.488Z,12.2
2022-10-14T07:08:58.323Z,12.3
2022-10-14T07:10:01.597Z,12.3
2022-10-14T07:11:03.542Z,12.3
2022-10-14T07:12:06.327Z,12.3
2022-10-14T07:13:09.415Z,12.3
2022-10-14T07:14:13.230Z,12.3
2022-10-14T07:15:17.011Z,12.3
2022-10-14T07:16:19.804Z,12.4
2022-10-14T07:17:25.248Z,12.4
2022-10-14T07:18:28.279Z,12.4
2022-10-14T07:19:30.993Z,12.5
2022-10-14T07:20:33.863Z,12.5
2022-10-14T07:21:37.214Z,12.5
2022-10-14T07:22:40.814Z,12.5
2022-10-14T07:23:43.255Z,12.5
2022-10-14T07:24:45.990Z,12.5
2022-10-14T07:25:49.657Z,12.5
2022-10-14T07:26:53.322Z,12.5
2022-10-14T07:27:56.766Z,12.5
2022-10-14T07:29:00.799Z,12.5
2022-10-14T07:30:04.240Z,12.5
2022-10-14T07:31:08.303Z,12.5
2022-10-14T07:32:11.485Z,12.5
2022-10-14T07:33:14.280Z,12.5
2022-10-14T07:34:17.815Z,12.5
2022-10-14T07:35:20.693Z,12.5
2022-10-14T07:36:24.588Z,12.5
2022-10-14T07:37:27.409Z,12.5
2022-10-14T07:38:31.102Z,12.5
2022-10-14T07:39:33.624Z,12.5
2022-10-14T07:40:36.650Z,12.5
2022-10-14T07:41:39.819Z,12.5
2022-10-14T07:42:43.136Z,12.5
2022-10-14T07:43:46.203Z,12.5
2022-10-14T07:44:49.164Z,12.5
2022-10-14T07:45:52.978Z,12.5
2022-10-14T07:46:56.823Z,12.5
2022-10-14T07:47:59.537Z,12.5
2022-10-14T07:49:02.681Z,12.5
2022-10-14T07:50:06.696Z,12.5
2022-10-14T07:51:09.961Z,12.5
2022-10-14T07:52:12.668Z,12.5
2022-10-14T07:53:16.007Z,12.5
2022-10-14T07:54:19.162Z,12.5
2022-10-14T07:55:21.760Z,12.5
2022-10-14T07:56:24.896Z,12.5
2022-10-14T07:57:27.892Z,12.4
2022-10-14T07:58:31.318Z,12.4
2022-10-14T07:59:34.655Z,12.4
2022-10-14T08:00:37.789Z,12.4
2022-10-14T08:01:42.015Z,12.4
2022-10-14T08:02:46.167Z,12.4
2022-10-14T08:03:49.314Z,12.3
2022-10-14T08:04:51.563Z,12.3
2022-10-14T08:05:54.579Z,12.4
2022-10-14T08:06:57.472Z,12.4
2022-10-14T08:08:01.188Z,12.4
2022-10-14T08:09:04.142Z,12.4
2022-10-14T08:10:07.402Z,12.4
2022-10-14T08:11:09.836Z,12.4
2022-10-14T08:12:13.225Z,12.4
2022-10-14T08:13:16.111Z,12.4
2022-10-14T08:14:19.635Z,12.4
2022-10-14T08:15:22.827Z,12.4
2022-10-14T08:16:26.174Z,12.4
2022-10-14T08:17:29.093Z,12.4
2022-10-14T08:18:33.129Z,12.4
2022-10-14T08:19:35.944Z,12.4
2022-10-14T08:20:38.855Z,12.3
2022-10-14T08:21:42.403Z,12.3
2022-10-14T08:22:44.953Z,12.3
2022-10-14T08:23:48.070Z,12.3
2022-10-14T08:24:50.860Z,12.3
2022-10-14T08:25:54.297Z,12.3
2022-10-14T08:26:56.347Z,12.3
2022-10-14T08:27:59.263Z,12.2
2022-10-14T08:29:02.701Z,12.3
2022-10-14T08:30:12.841Z,12.2
2022-10-14T08:31:15.944Z,12.2
2022-10-14T08:32:19.126Z,12.2
2022-10-14T08:33:23.267Z,12.2
2022-10-14T08:34:26.812Z,12.2
2022-10-14T08:35:29.988Z,12.2
2022-10-14T08:36:32.795Z,12.2
2022-10-14T08:37:35.953Z,12.3
2022-10-14T08:38:38.562Z,12.2
2022-10-14T08:39:42.376Z,12.2
2022-10-14T08:40:45.721Z,12.3
2022-10-14T08:41:48.043Z,12.3
2022-10-14T08:42:50.917Z,12.3
2022-10-14T08:43:54.647Z,12.3
2022-10-14T08:44:57.844Z,12.3
2022-10-14T08:46:01.219Z,12.3
2022-10-14T08:47:03.835Z,12.3
2022-10-14T08:48:07.541Z,12.3
2022-10-14T08:49:10.690Z,12.4
2022-10-14T08:50:14.771Z,12.4
2022-10-14T08:51:17.945Z,12.4
2022-10-14T08:52:23.123Z,12.4
2022-10-14T08:53:26.971Z,12.4
2022-10-14T08:54:30.067Z,12.4
2022-10-14T08:55:33.013Z,12.4
2022-10-14T08:56:36.740Z,12.4
2022-10-14T08:57:39.343Z,12.4
2022-10-14T08:58:42.137Z,12.4
2022-10-14T08:59:45.231Z,12.4
2022-10-14T09:00:48.581Z,12.4
2022-10-14T09:01:52.034Z,12.4
2022-10-14T09:02:55.818Z,12.4
2022-10-14T09:03:59.545Z,12.5
2022-10-14T09:05:02.810Z,12.5
2022-10-14T09:06:06.989Z,12.6
2022-10-14T09:07:09.977Z,12.6
2022-10-14T09:08:13.043Z,12.6
2022-10-14T09:09:16.396Z,12.6
2022-10-14T09:10:18.843Z,12.6
2022-10-14T09:11:22.073Z,12.6
2022-10-14T09:12:26.908Z,12.6
2022-10-14T09:13:30.048Z,12.7
2022-10-14T09:14:32.832Z,12.7
2022-10-14T09:15:35.647Z,12.7
2022-10-14T09:16:38.789Z,12.7
2022-10-14T09:17:41.868Z,12.7
2022-10-14T09:18:45.101Z,12.7
2022-10-14T09:19:47.341Z,12.7
2022-10-14T09:20:50.865Z,12.6
2022-10-14T09:21:55.637Z,12.7
2022-10-14T09:22:58.731Z,12.7
2022-10-14T09:24:02.120Z,12.7
2022-10-14T09:25:05.915Z,12.7
2022-10-14T09:26:08.989Z,12.7
2022-10-14T09:27:12.433Z,12.7
2022-10-14T09:28:16.435Z,12.7
2022-10-14T09:29:19.256Z,12.7
2022-10-14T09:30:22.633Z,12.7
2022-10-14T09:31:26.457Z,12.7
2022-10-14T09:32:29.353Z,12.7
2022-10-14T09:33:32.732Z,12.7
2022-10-14T09:34:35.881Z,12.7
2022-10-14T09:35:38.958Z,12.7
2022-10-14T09:36:42.809Z,12.6
2022-10-14T09:37:46.425Z,12.6
2022-10-14T09:38:49.883Z,12.6
2022-10-14T09:39:53.400Z,12.6
2022-10-14T09:40:56.223Z,12.6
2022-10-14T09:41:59.288Z,12.6
2022-10-14T09:43:01.896Z,12.7
2022-10-14T09:44:04.882Z,12.6
2022-10-14T09:45:09.116Z,12.7
2022-10-14T09:46:12.583Z,12.7
2022-10-14T09:47:15.297Z,12.7
2022-10-14T09:48:17.743Z,12.7
2022-10-14T09:49:20.612Z,12.7
2022-10-14T09:50:24.354Z,12.7
2022-10-14T09:51:27.438Z,12.7
2022-10-14T09:52:30.951Z,12.7
2022-10-14T09:53:34.427Z,12.8
2022-10-14T09:54:37.133Z,12.8
2022-10-14T09:55:39.992Z,12.7
2022-10-14T09:56:43.689Z,12.8
2022-10-14T09:57:47.148Z,12.8
2022-10-14T09:58:50.019Z,12.8
2022-10-14T09:59:53.470Z,12.9
2022-10-14T10:00:56.352Z,12.9
2022-10-14T10:01:59.444Z,12.9
2022-10-14T10:03:02.336Z,12.9
2022-10-14T10:04:05.781Z,12.9
2022-10-14T10:05:08.928Z,12.9
2022-10-14T10:06:12.605Z,12.9
2022-10-14T10:07:15.982Z,12.9
2022-10-14T10:08:19.436Z,12.9
2022-10-14T10:09:23.591Z,13
2022-10-14T10:10:27.005Z,13
2022-10-14T10:11:29.883Z,13
2022-10-14T10:12:33.264Z,13
2022-10-14T10:13:36.695Z,13
2022-10-14T10:14:40.052Z,13
2022-10-14T10:15:42.845Z,13
2022-10-14T10:16:46.341Z,13
2022-10-14T10:17:49.230Z,13.1
2022-10-14T10:18:52.228Z,13.1
2022-10-14T10:19:55.638Z,13.2
2022-10-14T10:20:58.974Z,13.2
2022-10-14T10:22:02.314Z,13.3
2022-10-14T10:23:05.452Z,13.4
2022-10-14T10:24:08.636Z,13.5
2022-10-14T10:25:12.127Z,13.5
2022-10-14T10:26:15.222Z,13.6
2022-10-14T10:27:19.076Z,13.7
2022-10-14T10:28:22.153Z,13.7
2022-10-14T10:29:25.301Z,13.8
2022-10-14T10:30:27.752Z,13.9
2022-10-14T10:31:31.790Z,14.2
2022-10-14T10:32:35.181Z,14.4
2022-10-14T10:33:38.595Z,14.7
2022-10-14T10:34:42.036Z,14.9
2022-10-14T10:35:44.975Z,15.1
2022-10-14T10:36:47.846Z,15.3
2022-10-14T10:37:51.577Z,15.5
2022-10-14T10:38:54.600Z,15.7
2022-10-14T10:39:58.471Z,15.8
2022-10-14T10:41:02.065Z,16.1
2022-10-14T10:42:05.255Z,16.1
2022-10-14T10:43:08.464Z,16.1
2022-10-14T10:44:12.074Z,16
2022-10-14T10:45:15.269Z,16.1
2022-10-14T10:46:18.320Z,16.3
2022-10-14T10:47:21.671Z,16.2
2022-10-14T10:48:24.527Z,15.9
2022-10-14T10:49:27.888Z,15.8
2022-10-14T10:50:31.019Z,15.6
2022-10-14T10:51:34.324Z,15.5
2022-10-14T10:52:36.739Z,15.4
2022-10-14T10:53:40.162Z,15.5
2022-10-14T10:54:42.853Z,15.8
2022-10-14T10:55:46.278Z,15.9
2022-10-14T10:56:50.147Z,16.1
2022-10-14T10:57:53.266Z,16.3
2022-10-14T10:58:56.334Z,16.2
2022-10-14T10:59:59.523Z,16.3
2022-10-14T11:01:03.068Z,16.5
2022-10-14T11:02:05.272Z,16.7
2022-10-14T11:03:08.780Z,17
2022-10-14T11:04:11.106Z,17.2
2022-10-14T11:05:13.797Z,17.4
2022-10-14T11:06:16.292Z,17.4
2022-10-14T11:07:18.799Z,17.5
2022-10-14T11:08:22.409Z,17.6
2022-10-14T11:09:25.548Z,17.6
2022-10-14T11:10:29.178Z,17.6
2022-10-14T11:11:33.057Z,17.6
2022-10-14T11:12:36.751Z,17.7
2022-10-14T11:13:40.080Z,17.8
2022-10-14T11:14:42.493Z,17.8
2022-10-14T11:15:45.546Z,17.8
2022-10-14T11:16:48.048Z,17.7
2022-10-14T11:17:51.336Z,17.6
2022-10-14T11:18:54.309Z,17.5
2022-10-14T11:19:57.723Z,17.3
2022-10-14T11:21:00.345Z,17.2
2022-10-14T11:22:03.201Z,17.1
2022-10-14T11:23:06.053Z,17.2
2022-10-14T11:24:09.988Z,17.3
2022-10-14T11:25:12.589Z,17.5
2022-10-14T11:26:15.092Z,17.5
2022-10-14T11:27:27.103Z,17.7
2022-10-14T11:28:31.869Z,17.8
2022-10-14T11:29:35.529Z,17.8
2022-10-14T11:30:38.595Z,17.5
2022-10-14T11:31:42.046Z,17.4
2022-10-14T11:32:44.564Z,17.3
2022-10-14T11:33:47.283Z,17.1
2022-10-14T11:34:50.645Z,16.9
2022-10-14T11:35:53.863Z,16.6
2022-10-14T11:36:56.543Z,16.7
2022-10-14T11:37:58.799Z,16.7
2022-10-14T11:39:02.261Z,16.7
2022-10-14T11:40:05.935Z,16.9
2022-10-14T11:41:09.083Z,17
2022-10-14T11:42:11.959Z,17
2022-10-14T11:43:15.146Z,17.1
2022-10-14T11:44:19.150Z,17
2022-10-14T11:45:23.199Z,17
2022-10-14T11:46:26.647Z,17.1
2022-10-14T11:47:30.083Z,17.2
2022-10-14T11:48:33.058Z,17.4
2022-10-14T11:49:36.222Z,17.5
2022-10-14T11:50:39.596Z,17.5
2022-10-14T11:51:42.771Z,17.6
2022-10-14T11:52:46.768Z,17.7
2022-10-14T11:53:50.585Z,17.8
2022-10-14T11:54:53.509Z,17.8
2022-10-14T11:55:56.852Z,17.9
2022-10-14T11:56:59.819Z,18.1
2022-10-14T11:58:03.546Z,18.2
2022-10-14T11:59:06.906Z,18.2
2022-10-14T12:00:10.684Z,18.3
2022-10-14T12:01:13.868Z,18.2
2022-10-14T12:02:17.420Z,18.2
2022-10-14T12:03:21.016Z,18.3
2022-10-14T12:04:24.079Z,18.1
2022-10-14T12:05:27.722Z,18
2022-10-14T12:06:30.787Z,17.7
2022-10-14T12:07:34.249Z,17.5
2022-10-14T12:08:37.241Z,17.4
2022-10-14T12:09:40.622Z,17.4
2022-10-14T12:10:43.444Z,17.4
2022-10-14T12:11:46.867Z,17.4
2022-10-14T12:12:50.418Z,17.5
2022-10-14T12:13:53.494Z,17.6
2022-10-14T12:14:57.089Z,17.6
2022-10-14T12:16:01.281Z,17.6
2022-10-14T12:17:04.729Z,17.5
2022-10-14T12:18:07.810Z,17.6
2022-10-14T12:19:10.805Z,17.5
2022-10-14T12:20:14.372Z,17.5
2022-10-14T12:21:17.540Z,17.5
2022-10-14T12:22:23.368Z,17.3
2022-10-14T12:23:27.542Z,17.2
2022-10-14T12:24:30.255Z,17
2022-10-14T12:25:33.701Z,17
2022-10-14T12:26:37.138Z,16.9
2022-10-14T12:27:40.377Z,16.9
2022-10-14T12:28:44.265Z,16.7
2022-10-14T12:29:48.086Z,16.6
2022-10-14T12:30:51.270Z,16.6
2022-10-14T12:31:54.743Z,16.6
2022-10-14T12:32:57.618Z,16.5
2022-10-14T12:34:00.047Z,16.5
2022-10-14T12:35:03.915Z,16.6
2022-10-14T12:36:06.428Z,16.5
2022-10-14T12:37:09.572Z,16.5
2022-10-14T12:38:13.038Z,16.5
2022-10-14T12:39:15.901Z,16.5
2022-10-14T12:40:18.698Z,16.5
2022-10-14T12:41:21.233Z,16.5
2022-10-14T12:42:25.950Z,16.6
2022-10-14T12:43:29.104Z,16.6
2022-10-14T12:44:31.637Z,16.6
2022-10-14T12:45:34.666Z,16.5
2022-10-14T12:46:38.248Z,16.5
2022-10-14T12:47:41.799Z,16.5
2022-10-14T12:48:44.685Z,16.5
2022-10-14T12:49:47.574Z,16.5
2022-10-14T12:50:51.067Z,16.5
2022-10-14T12:51:54.110Z,16.5
2022-10-14T12:52:56.927Z,16.5
2022-10-14T12:54:00.381Z,16.4
2022-10-14T12:55:04.101Z,16.4
2022-10-14T12:56:07.252Z,16.4
2022-10-14T12:57:09.855Z,16.3
2022-10-14T12:58:13.304Z,16.3
2022-10-14T12:59:18.675Z,16.3
2022-10-14T13:00:21.767Z,16.2
2022-10-14T13:01:25.022Z,16.2
2022-10-14T13:02:28.545Z,16.3
2022-10-14T13:03:31.743Z,16.3
2022-10-14T13:04:34.067Z,16.3
2022-10-14T13:05:37.784Z,16.4
2022-10-14T13:06:41.137Z,16.4
2022-10-14T13:07:46.909Z,16.4
2022-10-14T13:08:50.544Z,16.4
2022-10-14T13:09:54.070Z,16.5
2022-10-14T13:10:56.930Z,16.5
2022-10-14T13:11:59.730Z,16.5
2022-10-14T13:13:02.934Z,16.5
2022-10-14T13:14:06.698Z,16.6
2022-10-14T13:15:10.028Z,16.7
2022-10-14T13:16:12.817Z,16.8
2022-10-14T13:17:17.341Z,16.9
2022-10-14T13:18:21.182Z,16.8
2022-10-14T13:19:24.656Z,16.8
2022-10-14T13:20:27.583Z,16.8
2022-10-14T13:21:31.230Z,16.7
2022-10-14T13:22:36.002Z,16.7
2022-10-14T13:23:39.077Z,16.6
2022-10-14T13:24:42.032Z,16.6
2022-10-14T13:25:45.175Z,16.5
2022-10-14T13:26:48.245Z,16.5
2022-10-14T13:27:51.331Z,16.5
2022-10-14T13:28:55.306Z,16.5
2022-10-14T13:29:58.703Z,16.5
2022-10-14T13:31:02.294Z,16.5
2022-10-14T13:32:05.813Z,16.6
2022-10-14T13:33:09.240Z,16.6
2022-10-14T13:34:13.187Z,16.6
2022-10-14T13:35:17.226Z,16.5
2022-10-14T13:36:20.408Z,16.6
2022-10-14T13:37:23.488Z,16.6
2022-10-14T13:38:26.321Z,16.5
2022-10-14T13:39:29.122Z,16.5
2022-10-14T13:40:31.460Z,16.5
2022-10-14T13:41:34.565Z,16.5
2022-10-14T13:42:37.671Z,16.6
2022-10-14T13:43:40.482Z,16.6
2022-10-14T13:44:43.704Z,16.6
2022-10-14T13:45:47.081Z,16.6
2022-10-14T13:46:49.622Z,16.6
2022-10-14T13:47:53.089Z,16.6
2022-10-14T13:48:56.266Z,16.7
2022-10-14T13:49:59.342Z,16.7
2022-10-14T13:51:38.411Z,16.8
2022-10-14T13:52:41.153Z,17
2022-10-14T13:53:45.925Z,17
2022-10-14T13:54:49.402Z,16.9
2022-10-14T13:55:56.141Z,16.9
2022-10-14T13:58:19.133Z,16.9
2022-10-14T14:00:42.811Z,16.7
2022-10-14T14:01:46.507Z,16.6
2022-10-14T14:03:03.943Z,16.6
2022-10-14T14:04:07.019Z,16.5
2022-10-14T14:05:10.553Z,16.5
2022-10-14T14:06:14.431Z,16.5
2022-10-14T14:08:42.624Z,16.5